createdAt,value
2017-10-05T00:01:25.694Z,101152.30
2017-10-05T00:03:53.334Z,101147.71
2017-10-05T00:06:20.926Z,101151.89
2017-10-05T00:08:48.550Z,101147.71
2017-10-05T00:11:16.134Z,101145.57
2017-10-05T00:13:43.790Z,101141.12
2017-10-05T00:16:11.367Z,101129.79
2017-10-05T00:18:38.978Z,101123.47
2017-10-05T00:21:06.613Z,101126.58
2017-10-05T00:23:34.230Z,101123.05
2017-10-05T00:26:01.879Z,101123.61
2017-10-05T00:28:29.483Z,101117.67
2017-10-05T00:30:57.112Z,101113.91
2017-10-05T00:33:24.723Z,101119.56
2017-10-05T00:35:52.361Z,101104.61
2017-10-05T00:38:19.988Z,101090.59
2017-10-05T00:40:47.611Z,101095.19
2017-10-05T00:43:15.217Z,101088.45
2017-10-05T00:45:42.858Z,101085.06
2017-10-05T00:48:10.458Z,101082.52
2017-10-05T00:50:38.091Z,101073.52
2017-10-05T00:53:05.697Z,101062.36
2017-10-05T00:55:33.327Z,101059.12
2017-10-05T00:58:00.903Z,101053.73
2017-10-05T01:00:28.543Z,101057.77
2017-10-05T01:02:56.158Z,101049.45
2017-10-05T01:05:23.771Z,101035.30
2017-10-05T01:07:51.409Z,101034.64
2017-10-05T01:10:19.002Z,101022.77
2017-10-05T01:12:46.642Z,101024.53
2017-10-05T01:15:14.238Z,101019.42
2017-10-05T01:17:41.859Z,100997.47
2017-10-05T01:20:09.452Z,100991.29
2017-10-05T01:22:37.062Z,100991.44
2017-10-05T01:25:04.651Z,100977.05
2017-10-05T01:27:32.270Z,100968.14
2017-10-05T01:29:59.898Z,100966.41
2017-10-05T01:32:27.531Z,100960.89
2017-10-05T01:34:55.181Z,100949.98
2017-10-05T01:37:22.827Z,100951.19
2017-10-05T01:39:50.501Z,100940.55
2017-10-05T01:42:18.175Z,100940.56
2017-10-05T01:44:45.771Z,100934.62
2017-10-05T01:47:13.418Z,100921.16
2017-10-05T01:49:41.059Z,100913.91
2017-10-05T01:52:08.684Z,100911.49
2017-10-05T01:54:36.344Z,100896.27
2017-10-05T01:57:03.940Z,100885.23
2017-10-05T01:59:31.574Z,100884.02
2017-10-05T02:01:59.254Z,100887.37
2017-10-05T02:04:26.894Z,100870.30
2017-10-05T02:06:54.511Z,100858.59
2017-10-05T02:09:22.490Z,100851.31
2017-10-05T02:11:50.086Z,100848.47
2017-10-05T02:14:17.708Z,100849.30
2017-10-05T02:16:45.363Z,100837.61
2017-10-05T02:19:12.983Z,100827.50
2017-10-05T02:21:40.610Z,100823.45
2017-10-05T02:24:08.207Z,100818.06
2017-10-05T02:26:35.876Z,100823.16
2017-10-05T02:29:03.479Z,100814.30
2017-10-05T02:31:31.114Z,100812.39
2017-10-05T02:33:58.727Z,100802.56
2017-10-05T02:36:26.369Z,100784.55
2017-10-05T02:38:53.970Z,100783.05
2017-10-05T02:41:21.653Z,100776.60
2017-10-05T02:43:49.293Z,100754.64
2017-10-05T02:46:16.947Z,100750.06
2017-10-05T02:48:44.572Z,100735.55
2017-10-05T02:51:12.220Z,100726.95
2017-10-05T02:53:39.876Z,100732.32
2017-10-05T02:56:07.481Z,100716.05
2017-10-05T02:58:35.126Z,100713.33
2017-10-05T03:01:02.728Z,100702.72
2017-10-05T03:03:30.414Z,100702.16
2017-10-05T03:05:58.086Z,100696.62
2017-10-05T03:08:25.708Z,100699.19
2017-10-05T03:10:53.305Z,100717.39
2017-10-05T03:13:20.941Z,100714.14
2017-10-05T03:15:48.548Z,100724.38
2017-10-05T03:18:16.186Z,100707.25
2017-10-05T03:20:43.798Z,100707.66
2017-10-05T03:23:11.429Z,100692.86
2017-10-05T03:25:39.092Z,100688.41
2017-10-05T03:28:06.736Z,100655.30
2017-10-05T03:30:34.335Z,100638.33
2017-10-05T03:33:01.981Z,100619.89
2017-10-05T03:35:29.583Z,100615.88
2017-10-05T03:37:57.376Z,100608.48
2017-10-05T03:40:24.967Z,100608.07
2017-10-05T03:42:52.596Z,100608.84
2017-10-05T03:45:20.196Z,100597.78
2017-10-05T03:47:47.862Z,100601.34
2017-10-05T03:50:15.458Z,100605.77
2017-10-05T03:52:43.090Z,100582.59
2017-10-05T03:55:10.818Z,100579.20
2017-10-05T03:57:38.441Z,100567.78
2017-10-05T04:00:06.024Z,100561.48
2017-10-05T04:02:34.218Z,100562.78
2017-10-05T04:05:01.827Z,100564.12
2017-10-05T04:07:29.494Z,100557.02
2017-10-05T04:10:00.376Z,100546.89
2017-10-05T04:15:01.716Z,100540.58
2017-10-05T04:17:29.686Z,100524.54
2017-10-05T04:20:00.042Z,100512.55
2017-10-05T04:25:05.900Z,100520.64
2017-10-05T04:27:38.189Z,100500.69
2017-10-05T04:30:06.931Z,100501.09
2017-10-05T04:32:49.746Z,100495.04
2017-10-05T04:35:24.270Z,100503.62
2017-10-05T04:38:02.632Z,100504.67
2017-10-05T04:43:15.959Z,100534.00
2017-10-05T04:48:29.110Z,100555.61
2017-10-05T04:50:56.722Z,100539.05
2017-10-05T04:53:24.386Z,100518.70
2017-10-05T04:55:52.005Z,100522.22
2017-10-05T04:58:19.632Z,100527.07
2017-10-05T05:00:47.258Z,100523.30
2017-10-05T05:03:14.861Z,100505.27
2017-10-05T05:05:42.486Z,100499.64
2017-10-05T05:08:10.092Z,100499.94
2017-10-05T05:10:37.764Z,100492.50
2017-10-05T05:13:05.385Z,100480.15
2017-10-05T05:15:33.068Z,100471.45
2017-10-05T05:18:00.655Z,100462.91
2017-10-05T05:20:28.354Z,100460.41
2017-10-05T05:22:55.971Z,100454.81
2017-10-05T05:25:23.655Z,100443.78
2017-10-05T05:27:51.262Z,100448.41
2017-10-05T05:30:18.892Z,100443.05
2017-10-05T05:32:46.992Z,100442.61
2017-10-05T05:35:14.576Z,100434.28
2017-10-05T05:37:42.200Z,100425.77
2017-10-05T05:40:09.802Z,100414.59
2017-10-05T05:42:37.435Z,100413.19
2017-10-05T05:45:05.061Z,100415.44
2017-10-05T05:47:32.790Z,100409.91
2017-10-05T05:50:00.412Z,100403.18
2017-10-05T05:52:28.079Z,100398.03
2017-10-05T05:54:55.750Z,100392.20
2017-10-05T05:57:23.429Z,100387.88
2017-10-05T05:59:51.090Z,100391.47
2017-10-05T06:02:18.703Z,100367.77
2017-10-05T06:04:46.313Z,100368.66
2017-10-05T06:07:13.922Z,100367.84
2017-10-05T06:09:41.542Z,100357.30
2017-10-05T06:12:09.165Z,100356.37
2017-10-05T06:14:36.793Z,100352.41
2017-10-05T06:17:04.458Z,100343.28
2017-10-05T06:19:32.054Z,100345.34
2017-10-05T06:21:59.691Z,100327.28
2017-10-05T06:24:27.375Z,100337.95
2017-10-05T06:26:54.966Z,100333.67
2017-10-05T06:29:23.520Z,100324.89
2017-10-05T06:31:51.166Z,100325.27
2017-10-05T06:34:18.787Z,100303.45
2017-10-05T06:36:46.514Z,100306.94
2017-10-05T06:39:14.130Z,100308.95
2017-10-05T06:41:41.859Z,100329.91
2017-10-05T06:44:09.463Z,100318.95
2017-10-05T06:46:37.121Z,100316.89
2017-10-05T06:49:04.742Z,100313.23
2017-10-05T06:51:32.385Z,100301.18
2017-10-05T06:53:59.987Z,100300.32
2017-10-05T06:56:27.627Z,100315.63
2017-10-05T06:58:55.239Z,100316.45
2017-10-05T07:01:22.903Z,100288.75
2017-10-05T07:03:50.519Z,100297.37
2017-10-05T07:06:18.106Z,100281.87
2017-10-05T07:08:45.755Z,100290.29
2017-10-05T07:11:13.398Z,100294.29
2017-10-05T07:13:41.035Z,100288.67
2017-10-05T07:16:08.651Z,100278.83
2017-10-05T07:18:36.278Z,100295.41
2017-10-05T07:21:03.889Z,100299.05
2017-10-05T07:23:31.553Z,100311.66
2017-10-05T07:25:59.162Z,100322.95
2017-10-05T07:28:26.798Z,100322.10
2017-10-05T07:30:54.399Z,100317.38
2017-10-05T07:33:22.034Z,100320.23
2017-10-05T07:35:49.641Z,100307.28
2017-10-05T07:38:17.246Z,100313.19
2017-10-05T07:40:44.910Z,100312.14
2017-10-05T07:43:12.538Z,100318.42
2017-10-05T07:45:40.185Z,100319.73
2017-10-05T07:48:07.920Z,100332.35
2017-10-05T07:50:35.586Z,100324.60
2017-10-05T07:53:03.187Z,100332.31
2017-10-05T07:55:30.815Z,100338.68
2017-10-05T07:57:58.421Z,100365.78
2017-10-05T08:00:26.112Z,100320.64
2017-10-05T08:02:53.716Z,100294.00
2017-10-05T08:05:21.352Z,100318.59
2017-10-05T08:07:49.021Z,100306.13
2017-10-05T08:10:16.670Z,100318.43
2017-10-05T08:12:44.270Z,100318.62
2017-10-05T08:15:11.886Z,100317.72
2017-10-05T08:17:39.496Z,100310.86
2017-10-05T08:20:07.147Z,100298.70
2017-10-05T08:22:34.746Z,100301.47
2017-10-05T08:25:02.341Z,100302.63
2017-10-05T08:27:29.967Z,100301.69
2017-10-05T08:29:57.571Z,100303.16
2017-10-05T08:32:25.222Z,100305.52
2017-10-05T08:34:52.872Z,100321.03
2017-10-05T08:37:20.629Z,100311.49
2017-10-05T08:39:48.265Z,100321.21
2017-10-05T08:42:15.929Z,100310.13
2017-10-05T08:44:43.530Z,100317.24
2017-10-05T08:47:11.187Z,100312.19
2017-10-05T08:49:38.803Z,100293.67
2017-10-05T08:52:06.433Z,100289.78
2017-10-05T08:54:34.029Z,100302.56
2017-10-05T08:57:01.664Z,100286.88
2017-10-05T08:59:29.283Z,100284.25
2017-10-05T09:01:56.917Z,100290.25
2017-10-05T09:04:24.522Z,100262.54
2017-10-05T09:06:52.229Z,100289.44
2017-10-05T09:09:19.842Z,100280.91
2017-10-05T09:11:47.494Z,100286.77
2017-10-05T09:14:15.110Z,100288.23
2017-10-05T09:16:42.747Z,100292.13
2017-10-05T09:19:12.009Z,100290.37
2017-10-05T09:21:39.738Z,100286.18
2017-10-05T09:24:07.414Z,100296.66
2017-10-05T09:26:35.060Z,100288.84
2017-10-05T09:29:02.658Z,100298.23
2017-10-05T09:31:30.286Z,100296.32
2017-10-05T09:33:57.887Z,100302.80
2017-10-05T09:36:25.539Z,100307.95
2017-10-05T09:38:53.203Z,100306.08
2017-10-05T09:41:20.878Z,100293.81
2017-10-05T09:43:48.516Z,100288.95
2017-10-05T09:46:16.122Z,100287.19
2017-10-05T09:48:43.766Z,100292.77
2017-10-05T09:51:11.362Z,100293.28
2017-10-05T09:53:39.026Z,100289.35
2017-10-05T09:56:06.784Z,100297.37
2017-10-05T09:58:34.453Z,100284.52
2017-10-05T10:01:02.058Z,100293.88
2017-10-05T10:03:29.682Z,100292.22
2017-10-05T10:05:57.299Z,100294.87
2017-10-05T10:08:24.946Z,100295.98
2017-10-05T10:10:52.552Z,100288.42
2017-10-05T10:13:20.158Z,100302.64
2017-10-05T10:15:47.776Z,100301.31
2017-10-05T10:18:15.393Z,100281.42
2017-10-05T10:20:43.020Z,100299.84
2017-10-05T10:23:10.734Z,100281.03
2017-10-05T10:25:38.429Z,100283.27
2017-10-05T10:28:06.077Z,100290.80
2017-10-05T10:30:33.712Z,100291.27
2017-10-05T10:33:01.374Z,100280.96
2017-10-05T10:35:28.965Z,100294.07
2017-10-05T10:37:56.600Z,100321.47
2017-10-05T10:40:24.191Z,100336.01
2017-10-05T10:42:51.826Z,100378.98
2017-10-05T10:45:19.431Z,100379.17
2017-10-05T10:47:47.060Z,100401.05
2017-10-05T10:50:14.674Z,100418.68
2017-10-05T10:52:42.287Z,100407.41
2017-10-05T10:55:09.906Z,100417.26
2017-10-05T10:57:37.527Z,100405.64
2017-10-05T11:00:05.155Z,100415.69
2017-10-05T11:02:32.786Z,100416.16
2017-10-05T11:05:00.412Z,100411.03
2017-10-05T11:07:28.074Z,100426.27
2017-10-05T11:09:55.667Z,100426.77
2017-10-05T11:12:23.406Z,100428.15
2017-10-05T11:14:51.006Z,100430.77
2017-10-05T11:17:18.669Z,100449.23
2017-10-05T11:19:46.251Z,100450.33
2017-10-05T11:22:13.909Z,100445.45
2017-10-05T11:24:41.520Z,100458.11
2017-10-05T11:27:09.147Z,100466.42
2017-10-05T11:29:36.780Z,100462.36
2017-10-05T11:32:04.397Z,100466.23
2017-10-05T11:34:32.043Z,100482.97
2017-10-05T11:36:59.643Z,100483.55
2017-10-05T11:39:27.467Z,100478.91
2017-10-05T11:41:55.086Z,100492.60
2017-10-05T11:44:22.783Z,100488.36
2017-10-05T11:46:50.402Z,100483.54
2017-10-05T11:49:18.030Z,100492.86
2017-10-05T11:51:52.356Z,100492.66
2017-10-05T11:54:22.189Z,100500.15
2017-10-05T11:56:59.706Z,100513.53
2017-10-05T11:59:27.825Z,100500.66
2017-10-05T12:01:55.455Z,100512.06
2017-10-05T12:04:23.069Z,100519.54
2017-10-05T12:06:50.705Z,100518.58
2017-10-05T12:09:18.342Z,100513.55
2017-10-05T12:11:46.021Z,100517.42
2017-10-05T12:14:13.618Z,100517.02
2017-10-05T12:16:41.252Z,100546.55
2017-10-05T12:19:08.876Z,100539.71
2017-10-05T12:21:36.531Z,100543.66
2017-10-05T12:24:04.155Z,100540.02
2017-10-05T12:26:31.791Z,100543.28
2017-10-05T12:28:59.432Z,100558.07
2017-10-05T12:31:27.039Z,100575.83
2017-10-05T12:33:54.720Z,100554.70
2017-10-05T12:36:22.347Z,100563.44
2017-10-05T12:38:50.051Z,100562.91
2017-10-05T12:41:17.718Z,100564.67
2017-10-05T12:43:45.550Z,100572.25
2017-10-05T12:46:13.165Z,100576.08
2017-10-05T12:48:40.786Z,100586.16
2017-10-05T12:51:08.425Z,100579.98
2017-10-05T12:53:36.074Z,100590.73
2017-10-05T12:56:03.665Z,100573.89
2017-10-05T12:58:32.126Z,100596.10
2017-10-05T13:00:59.726Z,100601.67
2017-10-05T13:03:27.371Z,100599.33
2017-10-05T13:05:55.333Z,100601.90
2017-10-05T13:08:23.847Z,100605.59
2017-10-05T13:10:51.688Z,100613.92
2017-10-05T13:13:19.323Z,100622.07
2017-10-05T13:15:46.941Z,100628.38
2017-10-05T13:18:14.626Z,100650.72
2017-10-05T13:20:42.257Z,100643.80
2017-10-05T13:23:09.854Z,100654.19
2017-10-05T13:25:37.492Z,100668.63
2017-10-05T13:28:05.141Z,100655.89
2017-10-05T13:30:32.758Z,100670.48
2017-10-05T13:33:00.359Z,100667.50
2017-10-05T13:35:27.990Z,100676.20
2017-10-05T13:37:55.621Z,100682.23
2017-10-05T13:40:23.287Z,100690.23
2017-10-05T13:42:50.904Z,100691.95
2017-10-05T13:45:18.538Z,100689.15
2017-10-05T13:47:46.193Z,100693.27
2017-10-05T13:50:14.022Z,100700.69
2017-10-05T13:52:41.673Z,100704.75
2017-10-05T13:55:09.351Z,100704.73
2017-10-05T13:57:37.001Z,100716.64
2017-10-05T14:00:04.590Z,100720.38
2017-10-05T14:02:32.214Z,100717.05
2017-10-05T14:04:59.843Z,100733.41
2017-10-05T14:07:27.462Z,100722.50
2017-10-05T14:09:55.075Z,100731.25
2017-10-05T14:12:22.722Z,100734.47
2017-10-05T14:14:50.352Z,100743.00
2017-10-05T14:17:18.009Z,100742.03
2017-10-05T14:19:45.626Z,100741.83
2017-10-05T14:22:13.311Z,100756.80
2017-10-05T14:24:40.918Z,100754.02
2017-10-05T14:27:08.729Z,100765.91
2017-10-05T14:29:36.331Z,100770.25
2017-10-05T14:32:04.105Z,100773.16
2017-10-05T14:34:31.779Z,100770.05
2017-10-05T14:36:59.375Z,100777.06
2017-10-05T14:39:27.030Z,100775.72
2017-10-05T14:41:54.633Z,100772.82
2017-10-05T14:44:22.291Z,100784.58
2017-10-05T14:46:49.987Z,100791.13
2017-10-05T14:49:17.656Z,100783.44
2017-10-05T14:51:45.319Z,100806.22
2017-10-05T14:54:12.991Z,100787.17
2017-10-05T14:56:40.659Z,100796.88
2017-10-05T14:59:08.423Z,100801.25
2017-10-05T15:01:36.035Z,100808.16
2017-10-05T15:04:03.750Z,100808.73
2017-10-05T15:06:31.483Z,100808.74
2017-10-05T15:08:59.151Z,100815.08
2017-10-05T15:11:26.783Z,100811.69
2017-10-05T15:13:54.425Z,100824.15
2017-10-05T15:16:22.608Z,100824.12
2017-10-05T15:18:50.273Z,100828.47
2017-10-05T15:21:17.925Z,100834.59
2017-10-05T15:23:45.571Z,100837.00
2017-10-05T15:26:13.158Z,100842.85
2017-10-05T15:28:41.185Z,100840.89
2017-10-05T15:31:08.965Z,100859.60
2017-10-05T15:33:36.563Z,100860.70
2017-10-05T15:36:04.206Z,100866.61
2017-10-05T15:38:31.840Z,100860.83
2017-10-05T15:40:59.525Z,100863.27
2017-10-05T15:43:27.191Z,100870.81
2017-10-05T15:45:54.837Z,100877.27
2017-10-05T15:48:22.596Z,100880.32
2017-10-05T15:50:50.288Z,100885.80
2017-10-05T15:53:17.904Z,100894.96
2017-10-05T15:55:45.584Z,100894.13
2017-10-05T15:58:13.263Z,100897.31
2017-10-05T16:00:40.887Z,100902.91
2017-10-05T16:03:08.512Z,100899.98
2017-10-05T16:05:36.205Z,100897.51
2017-10-05T16:08:03.793Z,100897.56
2017-10-05T16:10:31.815Z,100906.21
2017-10-05T16:12:59.575Z,100904.09
2017-10-05T16:15:27.492Z,100905.22
2017-10-05T16:17:55.127Z,100903.09
2017-10-05T16:20:22.755Z,100905.26
2017-10-05T16:22:50.521Z,100914.34
2017-10-05T16:25:18.306Z,100910.42
2017-10-05T16:27:46.156Z,100918.84
2017-10-05T16:30:13.884Z,100925.08
2017-10-05T16:32:41.529Z,100930.55
2017-10-05T16:35:09.130Z,100919.91
2017-10-05T16:37:37.382Z,100925.47
2017-10-05T16:40:04.981Z,100926.96
2017-10-05T16:42:32.643Z,100934.32
2017-10-05T16:45:00.446Z,100927.76
2017-10-05T16:47:28.147Z,100934.16
2017-10-05T16:49:57.257Z,100946.71
2017-10-05T16:52:24.891Z,100939.30
2017-10-05T16:54:53.034Z,100946.45
2017-10-05T16:57:20.807Z,100955.50
2017-10-05T16:59:48.468Z,100961.02
2017-10-05T17:02:16.155Z,100964.91
2017-10-05T17:04:43.793Z,100971.66
2017-10-05T17:07:11.524Z,100973.05
2017-10-05T17:09:39.211Z,100979.91
2017-10-05T17:12:08.210Z,100976.27
2017-10-05T17:14:35.804Z,100994.34
2017-10-05T17:17:03.533Z,100997.05
2017-10-05T17:19:31.158Z,100996.41
2017-10-05T17:21:58.811Z,101005.98
2017-10-05T17:24:26.754Z,101012.59
2017-10-05T17:26:54.408Z,101015.71
2017-10-05T17:29:21.990Z,101013.69
2017-10-05T17:31:49.627Z,101013.16
2017-10-05T17:34:17.283Z,101023.02
2017-10-05T17:36:45.013Z,101027.34
2017-10-05T17:39:12.622Z,101022.20
2017-10-05T17:41:40.254Z,101033.53
2017-10-05T17:44:07.915Z,101033.15
2017-10-05T17:46:35.511Z,101039.33
2017-10-05T17:49:03.218Z,101034.64
2017-10-05T17:51:31.299Z,101038.97
2017-10-05T17:53:58.948Z,101044.88
2017-10-05T17:56:26.615Z,101043.16
2017-10-05T17:58:54.421Z,101044.64
2017-10-05T18:01:22.036Z,101046.64
2017-10-05T18:03:50.054Z,101050.16
2017-10-05T18:06:17.669Z,101053.55
2017-10-05T18:08:45.321Z,101050.86
2017-10-05T18:11:12.951Z,101060.42
2017-10-05T18:13:40.577Z,101057.45
2017-10-05T18:16:08.250Z,101054.07
2017-10-05T18:18:36.042Z,101053.80
2017-10-05T18:21:03.654Z,101064.31
2017-10-05T18:23:31.314Z,101063.87
2017-10-05T18:25:58.961Z,101066.70
2017-10-05T18:28:26.575Z,101068.59
2017-10-05T18:30:54.588Z,101077.47
2017-10-05T18:33:22.223Z,101077.87
2017-10-05T18:35:49.851Z,101089.06
2017-10-05T18:38:17.557Z,101095.92
2017-10-05T18:40:45.200Z,101087.43
2017-10-05T18:43:12.854Z,101100.09
2017-10-05T18:45:40.535Z,101100.37
2017-10-05T18:48:08.181Z,101099.30
2017-10-05T18:50:35.934Z,101101.84
2017-10-05T18:53:03.575Z,101099.70
2017-10-05T18:55:31.346Z,101099.42
2017-10-05T18:57:58.993Z,101106.42
2017-10-05T19:00:26.663Z,101108.17
2017-10-05T19:02:54.527Z,101109.79
2017-10-05T19:05:22.157Z,101122.03
2017-10-05T19:07:49.767Z,101113.83
2017-10-05T19:10:17.451Z,101116.09
2017-10-05T19:12:45.092Z,101119.58
2017-10-05T19:15:12.849Z,101109.11
2017-10-05T19:17:40.475Z,101118.52
2017-10-05T19:20:08.189Z,101116.49
2017-10-05T19:22:35.945Z,101110.45
2017-10-05T19:25:03.563Z,101121.87
2017-10-05T19:27:31.214Z,101116.20
2017-10-05T19:29:58.808Z,101120.27
2017-10-05T19:32:26.452Z,101122.52
2017-10-05T19:34:54.087Z,101124.02
2017-10-05T19:37:21.793Z,101130.31
2017-10-05T19:39:49.460Z,101138.77
2017-10-05T19:42:17.145Z,101135.00
2017-10-05T19:44:44.784Z,101149.65
2017-10-05T19:47:13.148Z,101143.07
2017-10-05T19:49:40.760Z,101143.98
2017-10-05T19:52:08.399Z,101141.70
2017-10-05T19:54:36.014Z,101147.47
2017-10-05T19:57:03.707Z,101147.07
2017-10-05T19:59:31.346Z,101150.03
2017-10-05T20:01:59.065Z,101141.80
2017-10-05T20:04:26.736Z,101147.02
2017-10-05T20:06:54.477Z,101145.03
2017-10-05T20:09:22.119Z,101148.80
2017-10-05T20:11:49.712Z,101142.60
2017-10-05T20:14:18.891Z,101149.08
2017-10-05T20:17:04.260Z,101153.89
2017-10-05T20:19:37.438Z,101150.92
2017-10-05T20:25:15.712Z,101158.17
2017-10-05T20:30:57.892Z,101160.59
2017-10-05T20:33:25.500Z,101164.34
2017-10-05T20:35:53.324Z,101165.53
2017-10-05T20:38:20.973Z,101166.35
2017-10-05T20:40:48.678Z,101166.20
2017-10-05T20:43:16.420Z,101168.08
2017-10-05T20:45:44.076Z,101173.94
2017-10-05T20:48:11.693Z,101181.47
2017-10-05T20:50:39.337Z,101170.16
2017-10-05T20:53:06.964Z,101173.66
2017-10-05T20:55:34.685Z,101170.69
2017-10-05T20:58:02.315Z,101161.95
2017-10-05T21:00:30.168Z,101156.44
2017-10-05T21:02:57.816Z,101175.06
2017-10-05T21:05:25.618Z,101173.36
2017-10-05T21:07:53.216Z,101174.84
2017-10-05T21:10:20.881Z,101168.66
2017-10-05T21:12:48.512Z,101170.69
2017-10-05T21:15:16.166Z,101180.35
2017-10-05T21:17:43.776Z,101171.08
2017-10-05T21:20:11.455Z,101174.39
2017-10-05T21:22:39.105Z,101175.11
2017-10-05T21:25:06.717Z,101171.77
2017-10-05T21:27:34.368Z,101174.56
2017-10-05T21:30:02.004Z,101172.02
2017-10-05T21:32:29.638Z,101175.86
2017-10-05T21:34:57.269Z,101165.22
2017-10-05T21:37:24.918Z,101175.70
2017-10-05T21:39:52.527Z,101168.84
2017-10-05T21:42:20.160Z,101169.61
2017-10-05T21:44:47.764Z,101173.75
2017-10-05T21:47:15.475Z,101173.20
2017-10-05T21:49:43.226Z,101164.98
2017-10-05T21:52:10.888Z,101164.16
2017-10-05T21:54:38.503Z,101159.58
2017-10-05T21:57:06.179Z,101163.76
2017-10-05T21:59:33.813Z,101163.64
2017-10-05T22:02:01.417Z,101166.30
2017-10-05T22:04:29.051Z,101167.19
2017-10-05T22:06:56.671Z,101171.50
2017-10-05T22:09:24.311Z,101171.48
2017-10-05T22:11:52.677Z,101181.12
2017-10-05T22:14:20.304Z,101175.20
2017-10-05T22:16:47.907Z,101172.36
2017-10-05T22:19:15.551Z,101178.23
2017-10-05T22:21:43.160Z,101182.79
2017-10-05T22:24:10.790Z,101184.52
2017-10-05T22:26:38.399Z,101181.30
2017-10-05T22:29:06.031Z,101186.11
2017-10-05T22:31:33.681Z,101181.25
2017-10-05T22:34:01.349Z,101174.27
2017-10-05T22:36:28.992Z,101174.27
2017-10-05T22:38:56.623Z,101180.91
2017-10-05T22:41:24.235Z,101179.67
2017-10-05T22:43:51.886Z,101185.73
2017-10-05T22:46:19.516Z,101180.73
2017-10-05T22:48:47.156Z,101180.47
2017-10-05T22:51:14.766Z,101190.64
2017-10-05T22:53:42.435Z,101186.48
2017-10-05T22:56:10.037Z,101184.06
2017-10-05T22:58:37.639Z,101184.68
2017-10-05T23:01:05.277Z,101186.69
2017-10-05T23:03:32.904Z,101178.34
2017-10-05T23:06:00.614Z,101183.52
2017-10-05T23:08:28.224Z,101181.87
2017-10-05T23:10:55.893Z,101185.02
2017-10-05T23:13:23.517Z,101187.23
2017-10-05T23:15:51.143Z,101181.56
2017-10-05T23:18:18.756Z,101174.95
2017-10-05T23:20:46.431Z,101179.78
2017-10-05T23:23:14.068Z,101183.19
2017-10-05T23:25:41.757Z,101188.08
2017-10-05T23:28:09.369Z,101186.23
2017-10-05T23:30:37.001Z,101189.14
2017-10-05T23:33:04.623Z,101184.45
2017-10-05T23:35:32.253Z,101181.99
2017-10-05T23:37:59.847Z,101178.41
2017-10-05T23:40:27.503Z,101173.38
2017-10-05T23:42:55.128Z,101173.35
2017-10-05T23:45:22.759Z,101171.08
2017-10-05T23:47:50.359Z,101170.95
2017-10-05T23:50:17.997Z,101165.08
2017-10-05T23:52:45.708Z,101172.45
2017-10-05T23:55:13.407Z,101169.58
2017-10-05T23:57:41.110Z,101173.41
